Time;durP1;ratioP1;P1;durP2;ratioP2;P2;SDS_P1;SDS_P2;PMS_P1;PMS_P2;Temp;Humidity;BMP_temperature;BMP_pressure;BME280_temperature;BME280_humidity;BME280_pressure;Samples;Min_cycle;Max_cycle;Signal;HPM_P1;HPM_P2
2023/05/31 00:01:10;;;;;;;13.07;7.72;;;;;;;12.40;66.67;101407.56;10096090;29;20108;-77
2023/05/31 00:06:13;;;;;;;11.05;7.07;;;;;;;12.37;66.73;101410.47;10090782;29;20128;-76
2023/05/31 00:11:17;;;;;;;13.10;8.15;;;;;;;12.24;66.97;101407.75;10090027;29;20104;-77
2023/05/31 00:16:20;;;;;;;12.25;7.95;;;;;;;12.19;67.29;101409.06;10081021;29;20052;-77
2023/05/31 00:21:44;;;;;;;11.77;8.55;;;;;;;12.21;67.51;101405.28;10091692;29;20124;-76
2023/05/31 00:26:49;;;;;;;11.55;8.05;;;;;;;12.22;67.17;101411.53;10091954;29;20056;-76
2023/05/31 00:31:51;;;;;;;14.35;10.43;;;;;;;12.20;67.58;101414.31;10093996;29;20045;-77
2023/05/31 00:36:54;;;;;;;18.55;10.65;;;;;;;12.23;67.40;101408.75;10091197;29;20465;-77
2023/05/31 00:41:58;;;;;;;17.42;11.77;;;;;;;12.15;67.58;101413.81;10076542;29;20057;-76
2023/05/31 00:47:01;;;;;;;14.93;10.40;;;;;;;12.15;67.65;101420.06;10075072;29;20057;-75
2023/05/31 00:52:05;;;;;;;18.73;11.57;;;;;;;12.16;67.74;101413.69;10092060;29;20420;-76
2023/05/31 00:57:10;;;;;;;17.40;10.95;;;;;;;12.09;67.88;101416.91;10093022;29;20051;-76
2023/05/31 01:02:14;;;;;;;20.70;10.80;;;;;;;12.09;68.24;101420.47;10092948;29;20057;-76
2023/05/31 01:07:17;;;;;;;16.40;10.98;;;;;;;12.08;68.18;101416.06;10078326;29;20504;-77
2023/05/31 01:12:30;;;;;;;13.02;9.85;;;;;;;12.03;68.21;101417.38;10073281;29;20050;-77
2023/05/31 01:17:40;;;;;;;18.67;11.45;;;;;;;12.01;68.40;101420.16;10090291;29;20052;-76
2023/05/31 01:22:57;;;;;;;20.08;11.20;;;;;;;11.95;68.49;101418.75;10089201;29;20074;-76
2023/05/31 01:28:06;;;;;;;19.05;10.77;;;;;;;11.87;68.58;101420.28;10091345;29;20057;-77
2023/05/31 01:33:11;;;;;;;19.25;11.57;;;;;;;11.91;68.75;101416.41;10089017;29;20057;-75
2023/05/31 01:38:14;;;;;;;15.10;11.52;;;;;;;11.84;68.71;101413.25;10098682;29;20120;-77
2023/05/31 01:43:19;;;;;;;17.27;11.43;;;;;;;11.81;68.57;101421.56;10097892;29;20056;-77
2023/05/31 01:48:22;;;;;;;18.00;11.93;;;;;;;11.72;68.98;101419.53;10096997;29;20045;-77
2023/05/31 01:53:25;;;;;;;20.20;12.55;;;;;;;11.65;69.12;101420.91;10097363;29;20045;-76
2023/05/31 01:58:31;;;;;;;20.25;11.63;;;;;;;11.59;69.62;101414.13;10079917;29;20196;-76
2023/05/31 02:03:35;;;;;;;21.02;11.85;;;;;;;11.58;69.68;101417.78;10082392;29;20067;-77
2023/05/31 02:08:37;;;;;;;18.80;11.43;;;;;;;11.59;69.58;101418.66;10096204;29;20051;-78
2023/05/31 02:13:43;;;;;;;19.92;12.00;;;;;;;11.58;69.58;101416.94;10079318;29;20049;-76
2023/05/31 02:18:46;;;;;;;20.08;11.90;;;;;;;11.60;69.39;101406.91;10078499;29;20048;-77
2023/05/31 02:23:49;;;;;;;18.15;11.65;;;;;;;11.50;68.99;101394.09;10078150;29;20052;-75
2023/05/31 02:28:53;;;;;;;14.55;10.85;;;;;;;11.39;69.46;101390.44;10095530;29;20057;-77
2023/05/31 02:33:56;;;;;;;15.77;10.50;;;;;;;11.43;69.49;101398.16;10093790;29;20057;-76
2023/05/31 02:39:02;;;;;;;18.92;10.57;;;;;;;11.43;69.42;101383.84;10094705;29;20495;-76
2023/05/31 02:44:06;;;;;;;19.83;11.35;;;;;;;11.45;69.39;101398.06;10077398;29;20080;-77
2023/05/31 02:49:10;;;;;;;14.70;10.30;;;;;;;11.35;68.89;101389.75;10097232;29;20132;-77
2023/05/31 02:54:13;;;;;;;19.35;11.10;;;;;;;11.12;69.44;101393.13;10094655;29;20071;-76
2023/05/31 02:59:17;;;;;;;17.85;11.30;;;;;;;11.12;70.14;101385.06;10094637;29;20523;-76
2023/05/31 03:04:28;;;;;;;16.98;10.20;;;;;;;11.12;69.82;101382.38;10077350;29;20055;-76
2023/05/31 03:09:33;;;;;;;18.30;11.02;;;;;;;11.10;69.65;101385.16;10080769;29;20172;-76
2023/05/31 03:14:38;;;;;;;18.73;11.07;;;;;;;11.01;69.40;101388.47;10071646;29;20473;-77
2023/05/31 03:19:42;;;;;;;16.98;11.63;;;;;;;10.93;69.62;101378.22;10078134;29;20135;-78
2023/05/31 03:24:46;;;;;;;17.65;11.23;;;;;;;10.87;69.66;101380.47;10078042;29;20402;-75
2023/05/31 03:29:54;;;;;;;16.17;10.82;;;;;;;10.84;69.75;101385.09;10077823;29;20057;-76
2023/05/31 03:34:57;;;;;;;23.02;11.45;;;;;;;10.85;70.15;101385.94;10095020;29;20124;-77
2023/05/31 03:40:01;;;;;;;16.70;11.43;;;;;;;10.86;70.25;101393.06;10076851;29;20101;-77
2023/05/31 03:45:08;;;;;;;18.90;11.57;;;;;;;10.90;70.42;101394.56;10075574;29;20545;-77
2023/05/31 03:50:12;;;;;;;20.77;12.45;;;;;;;10.97;70.85;101403.06;10094166;29;20104;-77
2023/05/31 03:55:15;;;;;;;25.52;13.27;;;;;;;10.97;71.00;101397.69;10076254;29;20508;-75
2023/05/31 04:00:20;;;;;;;22.33;11.68;;;;;;;11.05;71.10;101393.56;10075145;29;20059;-77
2023/05/31 04:05:26;;;;;;;24.20;12.75;;;;;;;11.10;70.72;101381.59;10092405;29;20033;-77
2023/05/31 04:10:29;;;;;;;23.90;12.88;;;;;;;11.11;70.91;101378.84;10074296;29;20173;-76
2023/05/31 04:15:33;;;;;;;23.70;12.00;;;;;;;11.18;70.77;101385.53;10090455;29;20186;-77
2023/05/31 04:20:39;;;;;;;21.02;11.95;;;;;;;11.16;70.40;101387.47;10076240;29;20045;-79
2023/05/31 04:25:44;;;;;;;18.80;12.35;;;;;;;11.06;70.49;101397.09;10075106;29;20128;-77
2023/05/31 04:30:49;;;;;;;20.95;12.52;;;;;;;11.10;71.02;101401.28;10075346;29;20048;-76
2023/05/31 04:35:53;;;;;;;22.60;12.32;;;;;;;11.26;70.77;101409.22;10087888;29;20686;-76
2023/05/31 04:40:59;;;;;;;19.92;12.25;;;;;;;11.28;70.81;101404.59;10073898;29;20048;-77
2023/05/31 04:46:04;;;;;;;26.60;13.85;;;;;;;11.37;70.60;101403.13;10075167;29;20781;-76
2023/05/31 04:51:07;;;;;;;18.88;12.85;;;;;;;11.46;70.37;101405.16;10075450;29;20105;-77
2023/05/31 04:56:12;;;;;;;21.55;12.75;;;;;;;11.46;70.03;101391.72;10074489;29;20056;-76
2023/05/31 05:01:17;;;;;;;21.75;12.70;;;;;;;11.61;70.18;101396.03;10075729;29;20109;-78
2023/05/31 05:06:37;;;;;;;23.52;13.18;;;;;;;11.40;70.09;101397.53;10074985;29;20127;-76
2023/05/31 05:11:40;;;;;;;21.75;12.88;;;;;;;11.21;71.76;101401.44;10075448;29;20075;-77
2023/05/31 05:16:44;;;;;;;24.50;13.18;;;;;;;11.57;71.28;101413.34;10081990;29;20044;-77
2023/05/31 05:21:47;;;;;;;21.17;13.38;;;;;;;11.81;70.43;101413.50;10083517;29;20104;-77
2023/05/31 05:26:51;;;;;;;20.88;12.77;;;;;;;11.65;71.69;101412.84;10080815;29;20505;-77
2023/05/31 05:31:55;;;;;;;25.55;14.43;;;;;;;11.85;70.86;101412.31;10102199;29;20053;-76
2023/05/31 05:36:58;;;;;;;26.50;13.57;;;;;;;12.20;70.49;101408.94;10085113;29;20461;-76
2023/05/31 05:42:02;;;;;;;20.67;12.38;;;;;;;12.48;69.91;101429.41;10084971;29;20501;-76
2023/05/31 05:47:07;;;;;;;22.65;13.30;;;;;;;12.70;69.22;101415.22;10096713;29;20448;-76
2023/05/31 05:52:10;;;;;;;23.25;12.70;;;;;;;12.95;68.59;101418.78;10080827;29;20104;-76
2023/05/31 05:57:13;;;;;;;20.10;11.88;;;;;;;13.12;68.40;101418.38;10097989;29;20037;-76
2023/05/31 06:02:19;;;;;;;18.95;11.85;;;;;;;13.28;67.50;101418.94;10093510;29;20052;-76
2023/05/31 06:07:24;;;;;;;16.30;11.45;;;;;;;13.49;66.87;101423.69;10094272;29;20500;-76
2023/05/31 06:12:27;;;;;;;18.65;11.45;;;;;;;13.59;66.21;101418.44;10077610;29;20049;-75
2023/05/31 06:17:31;;;;;;;16.90;10.63;;;;;;;13.84;66.02;101414.69;10076431;29;20049;-77
2023/05/31 06:22:34;;;;;;;18.75;11.45;;;;;;;14.06;64.62;101413.84;10076092;29;20096;-75
2023/05/31 06:27:37;;;;;;;18.33;11.07;;;;;;;14.35;64.19;101425.91;10077518;29;20077;-75
2023/05/31 06:32:42;;;;;;;19.60;11.70;;;;;;;14.49;62.80;101415.84;10077591;29;20500;-77
2023/05/31 06:37:46;;;;;;;21.73;11.07;;;;;;;14.88;62.35;101413.53;10077054;29;20436;-77
2023/05/31 06:42:49;;;;;;;16.08;9.60;;;;;;;14.77;61.20;101414.44;10080135;29;20052;-78
2023/05/31 06:48:05;;;;;;;21.88;11.23;;;;;;;15.06;60.04;101401.19;10055905;29;20052;-75
2023/05/31 06:53:27;;;;;;;19.75;10.65;;;;;;;15.25;60.45;101403.19;10056012;29;20048;-77
2023/05/31 06:58:49;;;;;;;17.20;10.88;;;;;;;15.80;59.18;101406.59;10055738;29;20686;-76
2023/05/31 07:03:55;;;;;;;15.10;10.05;;;;;;;16.04;58.82;101403.56;10038288;29;20120;-76
2023/05/31 07:08:58;;;;;;;15.50;8.35;;;;;;;16.25;56.28;101399.97;10036715;29;20055;-75
2023/05/31 07:14:29;;;;;;;11.32;8.65;;;;;;;16.58;56.60;101396.94;10036486;29;20055;-76
2023/05/31 07:19:43;;;;;;;14.80;9.38;;;;;;;17.52;54.27;101401.03;10051472;29;20045;-76
2023/05/31 07:24:46;;;;;;;16.77;8.00;;;;;;;18.80;52.40;101393.13;10053907;29;20052;-75
2023/05/31 07:29:49;;;;;;;12.48;7.63;;;;;;;20.16;47.33;101400.00;10055047;29;20052;-75
2023/05/31 07:34:53;;;;;;;15.85;8.13;;;;;;;21.44;46.70;101392.50;10050894;29;20053;-75
2023/05/31 07:40:07;;;;;;;11.90;8.52;;;;;;;21.48;43.84;101387.56;10049789;29;20125;-75
2023/05/31 07:45:11;;;;;;;16.48;8.50;;;;;;;21.98;45.42;101381.00;10051620;29;20053;-75
2023/05/31 07:50:16;;;;;;;13.27;9.20;;;;;;;22.24;44.11;101389.81;10050729;29;20120;-75
2023/05/31 07:55:19;;;;;;;13.77;8.10;;;;;;;22.27;43.99;101381.22;10052977;29;20061;-75
2023/05/31 08:00:22;;;;;;;11.80;8.13;;;;;;;21.99;43.50;101371.75;10050677;29;20063;-75
2023/05/31 08:05:26;;;;;;;16.30;8.40;;;;;;;21.40;45.44;101367.38;10050457;29;20462;-77
2023/05/31 08:10:29;;;;;;;13.68;7.47;;;;;;;21.74;44.79;101365.47;10032126;29;21546;-76
2023/05/31 08:15:33;;;;;;;15.15;7.25;;;;;;;21.94;45.16;101360.47;10050653;29;20061;-75
2023/05/31 08:20:38;;;;;;;14.23;6.10;;;;;;;21.99;43.66;101363.53;10054044;29;20049;-76
2023/05/31 08:25:41;;;;;;;11.77;6.70;;;;;;;22.20;43.56;101354.75;10052233;29;20401;-75
2023/05/31 08:30:44;;;;;;;8.80;5.65;;;;;;;22.25;43.04;101350.44;10053339;29;20493;-75
2023/05/31 08:35:49;;;;;;;11.02;5.88;;;;;;;22.56;42.24;101355.09;10052205;29;20041;-75
2023/05/31 08:40:52;;;;;;;10.98;5.60;;;;;;;22.34;43.30;101348.53;10054197;29;20052;-75
2023/05/31 08:45:55;;;;;;;7.53;4.68;;;;;;;22.75;42.16;101346.41;10049500;29;20057;-74
2023/05/31 08:51:00;;;;;;;9.70;4.68;;;;;;;23.17;39.90;101345.09;10036965;29;20049;-75
2023/05/31 08:56:05;;;;;;;10.13;3.42;;;;;;;22.96;38.87;101343.03;10035368;29;20175;-74
2023/05/31 09:01:08;;;;;;;9.68;3.40;;;;;;;22.77;39.37;101338.03;10053808;29;20064;-75
2023/05/31 09:06:12;;;;;;;5.32;3.50;;;;;;;23.01;37.33;101334.28;10051428;29;20057;-76
2023/05/31 09:11:15;;;;;;;7.18;3.33;;;;;;;23.28;38.13;101329.25;10050837;29;20076;-76
2023/05/31 09:16:18;;;;;;;6.78;2.95;;;;;;;23.62;38.64;101331.50;10049630;29;20616;-76
2023/05/31 09:21:22;;;;;;;5.32;2.72;;;;;;;23.90;36.71;101317.16;10050150;29;20712;-76
2023/05/31 09:26:26;;;;;;;6.95;2.45;;;;;;;23.92;34.81;101315.94;10031948;29;20057;-75
2023/05/31 09:31:29;;;;;;;4.68;2.05;;;;;;;23.98;32.89;101312.41;10050521;29;20049;-75
2023/05/31 09:36:35;;;;;;;5.03;2.45;;;;;;;24.12;34.51;101318.09;10048660;29;20085;-77
2023/05/31 09:41:38;;;;;;;4.97;2.42;;;;;;;24.68;35.08;101310.09;10051036;29;21025;-76
2023/05/31 09:46:40;;;;;;;4.85;2.53;;;;;;;25.14;33.68;101307.81;10050930;29;20056;-77
2023/05/31 09:51:52;;;;;;;4.70;2.20;;;;;;;25.19;34.33;101296.22;10051697;29;20059;-75
2023/05/31 09:56:55;;;;;;;6.33;2.27;;;;;;;25.24;34.44;101295.63;10049949;29;20505;-76
2023/05/31 10:01:59;;;;;;;6.95;2.20;;;;;;;25.79;32.87;101297.50;10055115;29;20826;-75
2023/05/31 10:07:03;;;;;;;8.07;2.70;;;;;;;25.61;31.93;101299.91;10054774;29;20045;-75
2023/05/31 10:12:08;;;;;;;3.28;2.38;;;;;;;26.09;31.90;101294.47;10058500;29;20045;-77
2023/05/31 10:17:15;;;;;;;4.72;2.53;;;;;;;26.42;31.56;101286.38;10059364;29;20051;-76
2023/05/31 10:22:20;;;;;;;6.40;2.25;;;;;;;26.43;32.30;101281.69;10057007;29;20059;-77
2023/05/31 10:27:28;;;;;;;5.93;2.45;;;;;;;26.60;30.84;101271.97;10056105;29;20049;-75
2023/05/31 10:32:34;;;;;;;6.35;2.58;;;;;;;26.40;33.78;101284.88;10054673;29;20598;-77
2023/05/31 10:37:40;;;;;;;6.47;3.50;;;;;;;26.33;32.96;101284.88;10055333;29;20049;-76
2023/05/31 10:42:53;;;;;;;7.03;2.65;;;;;;;26.79;33.28;101266.72;10054599;29;20053;-75
2023/05/31 10:48:02;;;;;;;6.88;2.90;;;;;;;27.06;32.39;101259.34;10056226;29;20084;-76
2023/05/31 10:53:13;;;;;;;7.80;2.67;;;;;;;26.89;33.52;101259.75;10039659;29;20056;-76
2023/05/31 10:58:26;;;;;;;9.38;2.70;;;;;;;27.38;32.69;101258.44;10054959;29;20108;-75
2023/05/31 11:03:31;;;;;;;6.60;3.17;;;;;;;27.47;33.12;101248.06;10056294;29;20516;-76
2023/05/31 11:08:37;;;;;;;6.22;3.08;;;;;;;27.80;31.08;101253.47;10054972;29;20073;-76
2023/05/31 11:14:00;;;;;;;5.05;2.30;;;;;;;27.93;31.28;101248.97;10051956;29;20562;-76
2023/05/31 11:19:05;;;;;;;5.90;2.22;;;;;;;28.07;31.56;101244.28;10053063;29;20055;-77
2023/05/31 11:44:32;;;;;;;4.95;2.15;;;;;;;29.35;28.92;101214.41;10050708;29;20055;-77
2023/05/31 11:49:34;;;;;;;6.32;2.70;;;;;;;29.53;29.74;101212.69;10052632;29;20049;-76
2023/05/31 11:54:37;;;;;;;7.57;2.60;;;;;;;30.16;29.22;101215.13;10051127;29;20143;-77
2023/05/31 11:59:41;;;;;;;6.47;2.95;;;;;;;30.53;28.06;101208.63;10052749;29;20181;-76
2023/05/31 12:04:44;;;;;;;5.40;2.75;;;;;;;30.08;28.65;101207.13;10050661;29;20057;-76
2023/05/31 12:09:48;;;;;;;3.22;2.30;;;;;;;29.70;29.28;101191.63;10050537;29;20095;-76
2023/05/31 12:14:52;;;;;;;5.28;2.22;;;;;;;29.77;29.37;101189.63;10052437;29;20057;-76
2023/05/31 12:19:55;;;;;;;5.25;2.10;;;;;;;30.04;28.95;101195.66;10051652;29;20052;-78
2023/05/31 12:24:58;;;;;;;3.70;1.90;;;;;;;30.00;27.98;101176.97;10048603;29;20092;-77
2023/05/31 12:30:03;;;;;;;8.00;2.55;;;;;;;30.11;29.39;101170.63;10049526;29;20663;-76
2023/05/31 12:35:08;;;;;;;4.40;2.13;;;;;;;29.82;29.55;101170.41;10024705;29;21167;-77
2023/05/31 12:40:19;;;;;;;5.57;2.58;;;;;;;29.47;28.89;101167.41;10051425;29;20063;-77
2023/05/31 12:45:26;;;;;;;5.93;2.47;;;;;;;29.01;29.79;101163.22;10049326;29;20049;-76
2023/05/31 12:50:31;;;;;;;5.15;2.15;;;;;;;28.36;30.60;101162.69;10050079;29;20052;-76
2023/05/31 12:55:34;;;;;;;8.00;2.38;;;;;;;28.78;30.34;101155.59;10050817;29;20059;-78
2023/05/31 13:00:38;;;;;;;4.53;1.85;;;;;;;28.99;30.07;101158.97;10051798;29;20076;-76
2023/05/31 13:05:41;;;;;;;3.85;2.08;;;;;;;29.84;29.25;101166.53;10051368;29;20075;-76
2023/05/31 13:10:44;;;;;;;4.78;1.95;;;;;;;30.20;29.04;101147.09;10049531;29;20052;-76
2023/05/31 13:15:49;;;;;;;6.80;2.30;;;;;;;30.52;28.56;101140.41;10047866;29;20053;-76
2023/05/31 13:20:51;;;;;;;7.15;2.30;;;;;;;30.85;27.27;101137.06;10050485;29;20053;-75
2023/05/31 13:25:55;;;;;;;7.22;1.80;;;;;;;30.67;27.54;101129.72;10051191;29;20080;-76
2023/05/31 13:30:59;;;;;;;7.60;2.00;;;;;;;30.16;28.10;101136.72;10050877;29;20092;-76
2023/05/31 13:36:02;;;;;;;3.85;1.42;;;;;;;30.07;28.36;101135.34;10051749;29;20107;-76
2023/05/31 13:41:05;;;;;;;6.43;2.22;;;;;;;30.40;28.48;101123.75;10057295;29;20068;-75
2023/05/31 13:46:14;;;;;;;5.18;1.90;;;;;;;30.29;28.25;101108.81;10053531;29;20045;-76
2023/05/31 13:51:17;;;;;;;5.43;1.80;;;;;;;30.28;28.22;101109.91;10055905;29;20084;-76
2023/05/31 13:56:19;;;;;;;4.65;1.92;;;;;;;30.69;27.96;101105.34;10057686;29;20053;-76
2023/05/31 14:01:24;;;;;;;3.33;1.83;;;;;;;30.53;28.43;101115.22;10056295;29;20057;-76
2023/05/31 14:06:27;;;;;;;3.58;1.98;;;;;;;30.86;28.11;101098.00;10055636;29;20057;-75
2023/05/31 14:11:30;;;;;;;4.18;1.88;;;;;;;31.11;27.85;101089.41;10057545;29;20530;-76
2023/05/31 14:16:35;;;;;;;4.85;1.88;;;;;;;31.25;27.83;101078.06;10057817;29;20576;-76
2023/05/31 14:21:38;;;;;;;3.90;2.08;;;;;;;30.86;27.94;101069.44;10056880;29;20767;-75
2023/05/31 14:26:46;;;;;;;4.80;1.83;;;;;;;30.50;28.44;101060.28;10056087;29;20543;-75
2023/05/31 14:31:50;;;;;;;6.15;1.77;;;;;;;30.65;28.84;101057.03;10056416;29;20085;-76
2023/05/31 14:36:53;;;;;;;3.38;1.92;;;;;;;30.43;28.31;101052.06;10054619;29;20096;-75
2023/05/31 14:41:56;;;;;;;4.43;2.08;;;;;;;30.49;28.78;101061.34;10054314;29;20060;-75
2023/05/31 14:47:01;;;;;;;5.03;2.20;;;;;;;30.63;28.87;101048.91;10053688;29;20090;-77
2023/05/31 14:52:07;;;;;;;6.20;2.22;;;;;;;30.51;29.40;101052.78;10044666;29;20061;-76
2023/05/31 14:57:10;;;;;;;5.28;1.70;;;;;;;30.44;28.94;101051.00;10057815;29;20045;-77
2023/05/31 15:02:14;;;;;;;6.28;1.80;;;;;;;30.36;28.31;101037.50;10059187;29;20052;-75
2023/05/31 15:07:17;;;;;;;3.05;1.85;;;;;;;29.79;28.54;101032.44;10056522;29;20523;-75
2023/05/31 15:12:20;;;;;;;4.68;1.92;;;;;;;29.86;29.41;101028.72;10054388;29;20064;-75
2023/05/31 15:17:25;;;;;;;6.05;1.80;;;;;;;29.96;29.41;101023.44;10047151;29;20509;-76
2023/05/31 15:22:28;;;;;;;3.50;1.85;;;;;;;30.21;27.70;101023.25;10037153;29;20068;-75
2023/05/31 15:27:30;;;;;;;5.32;2.20;;;;;;;30.24;28.82;101029.16;10041217;29;20096;-75
2023/05/31 15:32:35;;;;;;;2.22;1.58;;;;;;;30.72;27.57;101023.63;10042750;29;20052;-76
2023/05/31 15:37:38;;;;;;;7.03;2.47;;;;;;;30.74;28.29;101016.75;10057640;29;20134;-74
2023/05/31 15:42:41;;;;;;;3.50;1.70;;;;;;;30.44;27.52;101016.88;10056386;29;20056;-76
2023/05/31 15:47:45;;;;;;;7.15;2.03;;;;;;;30.17;27.91;101009.06;10041298;29;20832;-76
2023/05/31 15:52:48;;;;;;;3.78;1.80;;;;;;;29.59;28.21;101009.72;10039495;29;20623;-75
2023/05/31 15:57:51;;;;;;;4.47;2.35;;;;;;;29.85;28.46;100999.34;10052599;29;20072;-75
2023/05/31 16:02:55;;;;;;;2.42;1.88;;;;;;;29.42;29.27;100997.63;10054272;29;20049;-75
2023/05/31 16:08:00;;;;;;;3.03;1.73;;;;;;;29.96;28.85;100993.81;10052536;29;20432;-76
2023/05/31 16:13:07;;;;;;;5.10;2.10;;;;;;;30.56;28.40;100981.69;10060188;29;20049;-76
2023/05/31 16:18:11;;;;;;;3.03;2.20;;;;;;;30.47;28.16;100975.69;10043350;29;20068;-76
2023/05/31 16:23:14;;;;;;;3.20;1.80;;;;;;;29.34;29.25;100987.72;10038548;29;20063;-75
2023/05/31 16:28:17;;;;;;;3.65;1.77;;;;;;;28.88;30.69;100976.22;10053296;29;20061;-77
2023/05/31 16:33:21;;;;;;;5.03;2.08;;;;;;;29.77;29.12;100973.69;10051481;29;20060;-76
2023/05/31 16:38:24;;;;;;;3.35;2.15;;;;;;;32.15;27.08;100973.63;10039622;29;20064;-77
2023/05/31 16:43:27;;;;;;;3.88;1.92;;;;;;;36.31;22.62;100956.72;10055550;29;20055;-75
2023/05/31 16:48:31;;;;;;;4.10;1.73;;;;;;;37.09;21.81;100956.16;10051711;29;20057;-76
2023/05/31 16:53:34;;;;;;;2.97;1.48;;;;;;;37.66;21.16;100945.41;10049151;29;21171;-76
2023/05/31 16:58:37;;;;;;;3.83;2.40;;;;;;;37.17;21.09;100940.72;10050595;29;20045;-77
2023/05/31 17:03:43;;;;;;;5.18;1.77;;;;;;;38.32;20.52;100949.56;10050909;29;20044;-76
2023/05/31 17:08:46;;;;;;;2.05;1.55;;;;;;;38.30;20.06;100935.00;10051238;29;20061;-76
2023/05/31 17:13:49;;;;;;;6.20;1.55;;;;;;;38.85;20.09;100929.81;10059828;29;20055;-77
2023/05/31 17:18:55;;;;;;;5.28;1.60;;;;;;;40.76;18.98;100932.69;10060718;29;20081;-77
2023/05/31 17:23:58;;;;;;;5.05;1.88;;;;;;;40.31;18.89;100921.22;10059116;29;20594;-75
2023/05/31 17:29:01;;;;;;;4.15;1.77;;;;;;;40.55;19.04;100920.19;10060567;29;20100;-76
2023/05/31 17:34:05;;;;;;;6.90;1.95;;;;;;;39.20;19.52;100916.44;10059287;29;20524;-76
2023/05/31 17:39:08;;;;;;;4.45;1.73;;;;;;;38.83;20.46;100917.22;10049666;29;20919;-77
2023/05/31 17:44:11;;;;;;;8.85;2.42;;;;;;;37.83;20.51;100912.19;10058389;29;20985;-76
2023/05/31 17:49:15;;;;;;;2.33;1.77;;;;;;;35.19;22.74;100910.94;10057672;29;20053;-76
2023/05/31 17:54:20;;;;;;;3.70;2.10;;;;;;;30.74;27.38;100916.09;10054797;29;20045;-75
2023/05/31 17:59:23;;;;;;;3.85;2.05;;;;;;;28.19;30.50;100913.84;10056035;29;20521;-75
2023/05/31 18:04:27;;;;;;;3.85;2.00;;;;;;;26.85;32.38;100913.13;10055468;29;20428;-75
2023/05/31 18:09:31;;;;;;;5.35;2.08;;;;;;;25.96;33.90;100904.44;10058274;29;20057;-75
2023/05/31 18:14:34;;;;;;;3.13;1.80;;;;;;;25.10;35.02;100907.97;10056836;29;20056;-75
2023/05/31 18:19:38;;;;;;;4.53;2.72;;;;;;;24.73;35.74;100917.53;10054945;29;20049;-75
2023/05/31 18:24:41;;;;;;;5.30;2.30;;;;;;;24.30;36.81;100904.84;10054692;29;20127;-76
2023/05/31 18:29:45;;;;;;;6.65;2.92;;;;;;;23.91;38.25;100910.91;10056547;29;20057;-75
2023/05/31 18:34:49;;;;;;;5.93;2.63;;;;;;;23.51;39.24;100918.78;10055339;29;20049;-75
2023/05/31 18:39:52;;;;;;;5.47;2.95;;;;;;;23.12;40.49;100900.03;10055334;29;20053;-75
2023/05/31 18:44:55;;;;;;;5.05;2.45;;;;;;;22.90;41.35;100905.50;10056525;29;20053;-74
2023/05/31 18:49:59;;;;;;;2.85;2.10;;;;;;;22.66;41.92;100903.09;10053213;29;20052;-74
2023/05/31 18:55:02;;;;;;;5.22;2.25;;;;;;;22.39;42.26;100912.81;10055917;29;20064;-76
2023/05/31 19:00:06;;;;;;;4.80;2.08;;;;;;;22.02;42.94;100909.09;10056192;29;20504;-76
2023/05/31 19:05:11;;;;;;;3.70;1.95;;;;;;;21.78;42.31;100915.69;10056703;29;20049;-75
2023/05/31 19:10:13;;;;;;;3.38;1.90;;;;;;;21.55;42.42;100921.97;10052274;29;20101;-76
2023/05/31 19:15:16;;;;;;;3.30;1.67;;;;;;;21.21;42.52;100917.81;10053872;29;20104;-76
2023/05/31 19:20:21;;;;;;;3.13;1.73;;;;;;;21.05;42.51;100925.25;10051212;29;20061;-76
2023/05/31 19:25:24;;;;;;;3.20;1.42;;;;;;;20.82;43.25;100931.50;10054619;29;20049;-77
2023/05/31 19:30:27;;;;;;;10.05;1.90;;;;;;;20.53;43.78;100932.97;10053239;29;20060;-76
2023/05/31 19:35:31;;;;;;;3.67;1.75;;;;;;;20.43;44.17;100937.81;10054318;29;20053;-77
2023/05/31 19:40:34;;;;;;;8.73;2.10;;;;;;;20.24;44.73;100946.34;10054964;29;20063;-76
2023/05/31 19:45:37;;;;;;;6.90;2.08;;;;;;;19.94;45.03;100961.56;10053456;29;20661;-75
2023/05/31 19:50:41;;;;;;;6.20;2.08;;;;;;;19.76;45.70;100956.31;10051310;29;20185;-75
2023/05/31 19:55:45;;;;;;;5.93;1.85;;;;;;;19.61;46.28;100959.72;10050591;29;20086;-76
2023/05/31 20:00:48;;;;;;;7.20;2.15;;;;;;;19.40;46.79;100962.91;10051827;29;20045;-76
2023/05/31 20:05:53;;;;;;;5.22;2.40;;;;;;;19.06;47.40;100970.31;10051170;29;20829;-76
2023/05/31 20:10:55;;;;;;;6.82;2.10;;;;;;;18.95;47.92;100971.47;10041282;29;21296;-77
2023/05/31 20:15:58;;;;;;;7.28;2.38;;;;;;;18.77;48.41;100977.00;10053274;29;20069;-77
2023/05/31 20:21:04;;;;;;;5.75;2.53;;;;;;;18.64;49.03;100973.88;10058251;29;20133;-76
2023/05/31 20:26:06;;;;;;;6.68;2.60;;;;;;;18.51;49.61;100986.06;10054030;29;20090;-76
2023/05/31 20:31:11;;;;;;;7.90;3.08;;;;;;;18.33;50.14;100986.13;10050080;29;20088;-78
2023/05/31 20:36:15;;;;;;;5.60;2.63;;;;;;;18.13;50.52;100988.19;10050799;29;20154;-77
2023/05/31 20:41:19;;;;;;;10.18;3.13;;;;;;;18.05;51.02;100984.56;10050345;29;20045;-76
2023/05/31 20:46:21;;;;;;;7.57;2.95;;;;;;;17.88;51.27;100983.53;10050608;29;20056;-76
2023/05/31 20:51:26;;;;;;;6.22;2.95;;;;;;;17.73;51.45;100982.41;10051066;29;20056;-76
2023/05/31 20:56:29;;;;;;;3.72;2.60;;;;;;;17.53;51.34;100982.59;10048160;29;20776;-75
2023/05/31 21:01:32;;;;;;;5.10;3.15;;;;;;;17.32;52.06;100979.31;10049355;29;20055;-77
2023/05/31 21:06:36;;;;;;;6.93;3.17;;;;;;;17.20;52.22;100982.25;10050777;29;20045;-76
2023/05/31 21:11:39;;;;;;;7.57;3.80;;;;;;;16.98;52.53;100986.22;10067948;29;20045;-76
2023/05/31 21:16:42;;;;;;;5.60;3.92;;;;;;;16.77;52.97;100986.47;10088657;29;20053;-77
2023/05/31 21:21:46;;;;;;;7.93;3.78;;;;;;;16.72;53.25;100987.91;10090348;29;20045;-75
2023/05/31 21:26:49;;;;;;;7.78;4.13;;;;;;;16.53;53.75;100997.84;10091647;29;20777;-77
2023/05/31 21:31:52;;;;;;;12.07;5.50;;;;;;;16.41;54.39;101009.03;10090172;29;20093;-76
2023/05/31 21:36:56;;;;;;;8.90;4.80;;;;;;;16.28;54.65;101009.34;10090259;29;20675;-77
2023/05/31 21:42:01;;;;;;;8.80;5.40;;;;;;;16.18;55.13;101008.47;10088896;29;20053;-77
2023/05/31 21:47:04;;;;;;;7.88;4.82;;;;;;;15.99;55.52;101012.94;10096268;29;20053;-77
2023/05/31 21:52:10;;;;;;;18.65;6.95;;;;;;;15.72;56.13;101021.78;10089536;29;20041;-75
2023/05/31 21:57:13;;;;;;;9.57;6.65;;;;;;;15.64;56.85;101025.19;10092153;29;20053;-76
2023/05/31 22:02:16;;;;;;;14.30;7.43;;;;;;;15.49;57.42;101021.19;10097722;29;20056;-77
2023/05/31 22:07:20;;;;;;;13.25;7.15;;;;;;;15.30;57.24;101019.28;10095962;29;20469;-76
2023/05/31 22:12:23;;;;;;;13.70;7.70;;;;;;;14.92;58.44;101025.44;10096049;29;20056;-78
2023/05/31 22:17:26;;;;;;;11.02;7.50;;;;;;;14.78;58.79;101035.66;10096025;29;20053;-76
2023/05/31 22:22:30;;;;;;;13.90;7.47;;;;;;;14.70;59.13;101029.19;10095640;29;20504;-76
2023/05/31 22:27:34;;;;;;;15.45;7.38;;;;;;;14.53;59.04;101020.72;10095326;29;20065;-78
2023/05/31 22:32:37;;;;;;;13.73;7.97;;;;;;;14.45;59.04;101030.50;10092238;29;20041;-76
2023/05/31 22:37:41;;;;;;;10.70;7.47;;;;;;;14.34;59.40;101026.88;10093262;29;20045;-77
2023/05/31 22:42:46;;;;;;;15.40;7.38;;;;;;;14.09;59.45;101035.38;10094828;29;20516;-77
2023/05/31 22:47:49;;;;;;;16.88;8.05;;;;;;;14.01;59.46;101045.97;10094702;29;20041;-77
2023/05/31 22:52:55;;;;;;;14.65;8.10;;;;;;;13.85;60.03;101047.28;10094259;29;20057;-75
2023/05/31 22:57:58;;;;;;;13.15;9.05;;;;;;;13.70;60.62;101044.03;10094598;29;20079;-76
2023/05/31 23:03:01;;;;;;;14.77;8.05;;;;;;;13.73;60.64;101044.75;10091495;29;20056;-77
2023/05/31 23:08:07;;;;;;;12.45;8.63;;;;;;;13.73;60.67;101044.75;10093483;29;20052;-77
2023/05/31 23:13:10;;;;;;;15.20;8.85;;;;;;;13.55;60.71;101037.22;10093474;29;20071;-76
2023/05/31 23:18:13;;;;;;;14.23;8.57;;;;;;;13.48;60.92;101041.41;10093733;29;20057;-77
2023/05/31 23:23:17;;;;;;;16.42;8.68;;;;;;;13.46;61.38;101043.38;10093170;29;20045;-77
2023/05/31 23:28:20;;;;;;;15.73;8.82;;;;;;;13.13;61.99;101047.81;10093143;29;20060;-76